createdAt,value
2022-08-28T13:33:01.278Z,3.15
2022-08-28T13:35:41.198Z,2.97
2022-08-28T13:38:11.894Z,3.95
2022-08-28T13:43:29.907Z,3.20
2022-08-28T13:45:58.526Z,3.28
2022-08-28T13:48:29.114Z,3.42
2022-08-28T13:51:00.455Z,3.00
2022-08-28T13:53:31.263Z,3.50
2022-08-28T13:56:01.489Z,3.05
2022-08-28T13:58:29.733Z,3.30
2022-08-28T14:00:58.118Z,3.15
2022-08-28T14:03:35.857Z,3.90
2022-08-28T14:06:05.457Z,3.15
2022-08-28T14:08:33.639Z,3.40
2022-08-28T14:11:01.764Z,3.40
2022-08-28T14:13:30.320Z,3.50
2022-08-28T14:15:59.095Z,3.72
2022-08-28T14:18:29.082Z,3.20
2022-08-28T14:20:57.528Z,3.27
2022-08-28T14:23:25.888Z,3.42
2022-08-28T14:25:54.029Z,3.92
2022-08-28T14:28:22.211Z,3.30
2022-08-28T14:30:52.030Z,3.30
2022-08-28T14:33:21.106Z,3.83
2022-08-28T14:35:50.905Z,3.40
2022-08-28T14:38:19.175Z,3.88
2022-08-28T14:40:47.350Z,3.33
2022-08-28T14:43:15.974Z,4.03
2022-08-28T14:45:46.421Z,3.95
2022-08-28T14:48:15.711Z,3.60
2022-08-28T14:50:46.197Z,4.20
2022-08-28T14:53:16.315Z,3.90
2022-08-28T14:55:46.547Z,3.90
2022-08-28T14:58:15.020Z,4.25
2022-08-28T15:00:45.419Z,4.00
2022-08-28T15:03:14.050Z,4.35
2022-08-28T15:05:42.548Z,4.25
2022-08-28T15:08:12.590Z,4.97
2022-08-28T15:10:43.349Z,5.10
2022-08-28T15:15:41.308Z,7.03
2022-08-28T15:18:11.273Z,7.90
2022-08-28T15:20:40.587Z,8.13
2022-08-28T15:23:09.111Z,7.30
2022-08-28T15:25:37.299Z,6.53
2022-08-28T15:28:07.225Z,6.20
2022-08-28T15:30:35.470Z,6.30
2022-08-28T15:33:04.017Z,5.90
2022-08-28T15:35:33.738Z,5.88
2022-08-28T15:38:02.036Z,5.72
2022-08-28T15:40:48.015Z,5.22
2022-08-28T15:43:17.669Z,5.72
2022-08-28T15:45:45.997Z,4.63
2022-08-28T15:48:14.386Z,4.75
2022-08-28T15:50:43.787Z,4.88
2022-08-28T15:53:12.335Z,5.30
2022-08-28T15:55:40.681Z,5.97
2022-08-28T15:58:13.765Z,4.65
2022-08-28T16:00:44.115Z,4.80
2022-08-28T16:03:12.609Z,4.93
2022-08-28T16:05:41.188Z,4.72
2022-08-28T16:08:10.531Z,4.30
2022-08-28T16:10:38.790Z,4.57
2022-08-28T16:13:07.087Z,3.90
2022-08-28T16:15:36.172Z,4.00
2022-08-28T16:18:08.947Z,3.53
2022-08-28T16:20:37.219Z,3.10
2022-08-28T16:23:05.486Z,3.78
2022-08-28T16:25:33.621Z,3.05
2022-08-28T16:28:01.749Z,3.42
2022-08-28T16:30:30.312Z,3.05
2022-08-28T16:32:59.047Z,3.83
2022-08-28T16:35:28.561Z,3.47
2022-08-28T16:37:57.774Z,3.80
2022-08-28T16:40:26.004Z,3.60
2022-08-28T16:42:56.008Z,3.38
2022-08-28T16:45:24.310Z,3.27
2022-08-28T16:47:52.467Z,3.05
2022-08-28T16:50:20.796Z,2.67
2022-08-28T16:52:50.788Z,2.97
2022-08-28T16:55:21.340Z,2.83
2022-08-28T17:00:18.883Z,2.80
2022-08-28T17:02:47.731Z,2.63
2022-08-28T17:05:18.923Z,2.40
2022-08-28T17:07:47.605Z,2.67
2022-08-28T17:10:20.272Z,2.65
2022-08-28T17:12:48.612Z,4.60
2022-08-28T17:15:17.262Z,3.40
2022-08-28T17:17:46.280Z,3.28
2022-08-28T17:20:28.769Z,3.35
2022-08-28T17:22:56.951Z,3.30
2022-08-28T17:25:27.348Z,3.10
2022-08-28T17:27:55.677Z,4.15
2022-08-28T17:30:24.090Z,3.00
2022-08-28T17:32:52.661Z,3.33
2022-08-28T17:35:20.950Z,2.83
2022-08-28T17:40:22.694Z,2.65
2022-08-28T17:42:53.761Z,3.80
2022-08-28T17:45:22.386Z,2.87
2022-08-28T17:47:50.884Z,2.85
2022-08-28T17:50:19.158Z,3.00
2022-08-28T17:52:47.322Z,2.90
2022-08-28T17:55:15.631Z,2.63
2022-08-28T17:57:43.890Z,2.80
2022-08-28T18:00:16.263Z,2.78
2022-08-28T18:02:44.619Z,3.53
2022-08-28T18:05:14.815Z,2.58
2022-08-28T18:07:43.056Z,3.00
2022-08-28T18:10:12.228Z,2.72
2022-08-28T18:12:40.783Z,2.35
2022-08-28T18:15:12.216Z,2.65
2022-08-28T18:17:42.759Z,2.47
2022-08-28T18:20:12.484Z,2.92
2022-08-28T18:22:40.758Z,2.72
2022-08-28T18:25:09.310Z,2.85
2022-08-28T18:27:37.452Z,2.90
2022-08-28T18:30:06.193Z,2.20
2022-08-28T18:32:34.369Z,2.58
2022-08-28T18:35:04.217Z,2.50
2022-08-28T18:37:32.378Z,2.20
2022-08-28T18:40:01.055Z,2.47
2022-08-28T18:42:29.908Z,2.38
2022-08-28T18:44:58.128Z,2.05
2022-08-28T18:47:26.217Z,2.72
2022-08-28T18:49:54.388Z,2.47
2022-08-28T18:52:23.998Z,2.20
2022-08-28T18:54:52.259Z,2.15
2022-08-28T18:57:25.151Z,2.50
2022-08-28T18:59:54.085Z,2.50
2022-08-28T19:02:22.303Z,2.60
2022-08-28T19:04:50.502Z,2.58
2022-08-28T19:07:18.821Z,2.83
2022-08-28T19:09:48.362Z,2.60
2022-08-28T19:12:16.552Z,2.28
2022-08-28T19:14:44.707Z,2.63
2022-08-28T19:17:12.903Z,3.08
2022-08-28T19:19:41.097Z,3.10
2022-08-28T19:22:09.220Z,2.75
2022-08-28T19:24:37.346Z,2.65
2022-08-28T19:27:07.077Z,2.92
